Aden International Airport


Codes: OYAA/ADE
Name: Aden International Airport
City: Aden
Country: Yemen
Elevation: 7 ft.
Wikipedia:

Photos at Aden International Airport


   Photos courtesy of SpottingLog. You can add your own sightings and photos by signing up for a free trial today.



No photos found.

Weather at Aden International Airport


Time (UTC)DescriptionTempratureWindCloud coverageVisibilityPressureHumidity
18-Apr-2024 00:00Broken Clouds29°C13 mph, E57%10000m1009hPa81%
18-Apr-2024 03:00Broken Clouds29°C13 mph, E77%10000m1010hPa83%
18-Apr-2024 06:00Broken Clouds30°C16 mph, E73%10000m1012hPa78%
18-Apr-2024 09:00Light Rain31°C16 mph, E64%10000m1010hPa72%
18-Apr-2024 12:00Broken Clouds31°C13 mph, E70%10000m1007hPa68%
18-Apr-2024 15:00Few Clouds31°C13 mph, E22%10000m1008hPa72%
18-Apr-2024 18:00Scattered Clouds30°C16 mph, E50%10000m1009hPa76%
18-Apr-2024 21:00Overcast Clouds29°C18 mph, E100%10000m1008hPa81%
19-Apr-2024 00:00Overcast Clouds29°C16 mph, E88%10000m1007hPa82%
19-Apr-2024 03:00Few Clouds29°C16 mph, E22%10000m1009hPa84%
19-Apr-2024 06:00Light Rain30°C16 mph, NE19%10000m1010hPa76%
19-Apr-2024 09:00Light Rain31°C16 mph, E40%10000m1009hPa69%
19-Apr-2024 12:00Few Clouds31°C13 mph, E24%10000m1006hPa66%
19-Apr-2024 15:00Scattered Clouds31°C16 mph, NE50%10000m1005hPa70%
19-Apr-2024 18:00Scattered Clouds30°C18 mph, E49%10000m1007hPa75%
19-Apr-2024 21:00Clear Sky29°C16 mph, E4%10000m1006hPa83%
20-Apr-2024 00:00Light Rain29°C13 mph, E3%10000m1005hPa81%
20-Apr-2024 03:00Light Rain29°C16 mph, NE8%10000m1007hPa79%
20-Apr-2024 06:00Light Rain31°C18 mph, E9%10000m1009hPa71%
20-Apr-2024 09:00Light Rain32°C18 mph, E12%10000m1008hPa69%
20-Apr-2024 12:00Scattered Clouds32°C13 mph, E40%10000m1005hPa68%
20-Apr-2024 15:00Scattered Clouds31°C13 mph, E40%10000m1005hPa74%
20-Apr-2024 18:00Scattered Clouds30°C18 mph, NE44%10000m1007hPa77%
20-Apr-2024 21:00Scattered Clouds29°C16 mph, E35%10000m1007hPa84%
21-Apr-2024 00:00Light Rain29°C16 mph, E37%10000m1006hPa85%
21-Apr-2024 03:00Light Rain29°C16 mph, E36%10000m1008hPa83%
21-Apr-2024 06:00Light Rain30°C18 mph, E44%10000m1010hPa75%
21-Apr-2024 09:00Light Rain31°C16 mph, E93%10000m1009hPa69%
21-Apr-2024 12:00Overcast Clouds32°C13 mph, E94%10000m1006hPa66%
21-Apr-2024 15:00Overcast Clouds30°C11 mph, E100%10000m1007hPa74%
21-Apr-2024 18:00Light Rain30°C16 mph, E97%10000m1008hPa78%
21-Apr-2024 21:00Light Rain29°C16 mph, E100%10000m1009hPa80%
22-Apr-2024 00:00Light Rain29°C13 mph, E78%10000m1007hPa77%
22-Apr-2024 03:00Scattered Clouds29°C13 mph, NE37%10000m1009hPa76%
22-Apr-2024 06:00Scattered Clouds30°C13 mph, E27%10000m1010hPa71%
22-Apr-2024 09:00Broken Clouds31°C16 mph, E61%10000m1009hPa67%
22-Apr-2024 12:00Scattered Clouds31°C13 mph, E48%10000m1007hPa68%
22-Apr-2024 15:00Broken Clouds30°C11 mph, E72%10000m1007hPa75%
22-Apr-2024 18:00Overcast Clouds30°C16 mph, E86%10000m1009hPa78%
22-Apr-2024 21:00Broken Clouds29°C11 mph, E80%10000m1009hPa78%